Time;durP1;ratioP1;P1;durP2;ratioP2;P2;SDS_P1;SDS_P2;PMS_P1;PMS_P2;Temp;Humidity;BMP_temperature;BMP_pressure;BME280_temperature;BME280_humidity;BME280_pressure;Samples;Min_cycle;Max_cycle;Signal;HPM_P1;HPM_P2
2022/09/23 00:00:12;;;;;;;7.90;6.90;;;;;;;8.58;86.15;100666.66;5078637;28;20440;-71
2022/09/23 00:02:41;;;;;;;10.83;7.60;;;;;;;8.49;85.90;100662.03;5078723;28;20480;-69
2022/09/23 00:05:10;;;;;;;8.10;7.27;;;;;;;8.45;86.25;100665.88;5062930;28;20479;-70
2022/09/23 00:07:37;;;;;;;7.30;6.20;;;;;;;8.45;86.49;100665.88;5060275;28;20520;-69
2022/09/23 00:10:05;;;;;;;9.40;6.80;;;;;;;8.41;86.28;100661.72;5058909;28;20951;-71
2022/09/23 00:12:32;;;;;;;7.63;6.27;;;;;;;8.35;86.39;100663.03;5062525;28;20527;-70
2022/09/23 00:14:58;;;;;;;6.83;5.90;;;;;;;8.36;86.60;100659.41;5077360;28;20858;-70
2022/09/23 00:17:26;;;;;;;8.23;5.97;;;;;;;8.50;86.39;100661.03;5084980;28;20549;-71
2022/09/23 00:19:54;;;;;;;7.87;6.93;;;;;;;8.51;86.04;100654.75;5070536;28;20440;-70
2022/09/23 00:22:21;;;;;;;8.93;6.63;;;;;;;8.40;85.86;100654.69;5060591;28;20484;-70
2022/09/23 00:24:48;;;;;;;8.97;7.20;;;;;;;8.33;86.01;100646.31;5064215;28;20462;-71
2022/09/23 00:27:14;;;;;;;7.17;6.53;;;;;;;8.25;86.44;100648.72;5074041;28;20493;-69
2022/09/23 00:29:41;;;;;;;8.60;6.80;;;;;;;8.29;86.38;100651.00;5071691;28;20476;-71
2022/09/23 00:32:08;;;;;;;7.40;6.00;;;;;;;8.26;86.59;100645.94;5065270;28;20487;-71
2022/09/23 00:34:34;;;;;;;7.80;6.43;;;;;;;8.15;86.51;100637.91;5080956;28;20460;-71
2022/09/23 00:37:02;;;;;;;9.70;6.47;;;;;;;8.06;86.74;100646.59;5082264;28;20478;-72
2022/09/23 00:39:29;;;;;;;7.53;6.50;;;;;;;7.99;86.68;100648.00;5082132;28;20478;-71
2022/09/23 00:41:55;;;;;;;7.20;6.17;;;;;;;7.92;86.58;100642.28;5082093;28;20481;-67
2022/09/23 00:44:43;;;;;;;11.70;7.30;;;;;;;7.83;86.82;100646.47;5082092;28;20489;-69
2022/09/23 00:47:14;;;;;;;7.80;5.83;;;;;;;7.79;86.83;100646.81;5088094;28;20930;-72
2022/09/23 00:49:41;;;;;;;7.63;6.83;;;;;;;7.72;86.83;100647.28;5102467;28;20445;-72
2022/09/23 00:52:12;;;;;;;10.10;6.70;;;;;;;7.79;86.79;100637.00;5102792;28;20530;-72
2022/09/23 00:54:39;;;;;;;7.10;5.83;;;;;;;7.92;87.35;100636.97;5102848;28;20450;-72
2022/09/23 00:57:05;;;;;;;9.10;6.03;;;;;;;7.90;87.14;100623.75;5095745;28;20553;-69
2022/09/23 00:59:32;;;;;;;7.07;6.00;;;;;;;7.80;87.08;100628.06;5082545;28;20482;-72
2022/09/23 01:01:59;;;;;;;7.17;6.13;;;;;;;7.75;86.82;100626.72;5069034;28;20514;-69
2022/09/23 01:04:27;;;;;;;8.17;6.23;;;;;;;7.66;87.29;100620.25;5078394;28;20468;-71
2022/09/23 01:06:54;;;;;;;7.13;6.10;;;;;;;7.67;87.11;100624.59;5080298;28;20495;-72
2022/09/23 01:09:22;;;;;;;7.27;5.77;;;;;;;7.68;87.02;100624.50;5081783;28;20479;-72
2022/09/23 01:11:55;;;;;;;7.17;5.83;;;;;;;7.76;87.42;100623.06;5079428;28;20486;-69
2022/09/23 01:14:33;;;;;;;6.93;6.27;;;;;;;7.75;87.36;100618.72;5061665;28;20571;-71
2022/09/23 01:17:04;;;;;;;7.03;6.13;;;;;;;7.72;87.42;100615.34;5070281;28;20486;-69
2022/09/23 01:19:43;;;;;;;7.90;6.60;;;;;;;7.64;87.01;100615.03;5080253;28;20477;-71
2022/09/23 01:22:14;;;;;;;7.83;6.70;;;;;;;7.50;87.14;100621.38;5084513;28;20471;-71
2022/09/23 01:24:58;;;;;;;8.90;5.83;;;;;;;7.42;87.15;100612.25;5069464;28;20453;-71
2022/09/23 01:28:00;;;;;;;8.73;6.60;;;;;;;7.38;87.00;100613.41;5080146;28;20503;-70
2022/09/23 01:30:43;;;;;;;8.83;6.40;;;;;;;7.47;87.12;100610.94;5059452;28;20829;-71
2022/09/23 01:33:13;;;;;;;7.33;6.63;;;;;;;7.44;87.38;100602.34;5077432;28;20571;-71
2022/09/23 01:36:00;;;;;;;9.77;7.10;;;;;;;7.43;87.24;100603.28;5080690;28;20529;-70
2022/09/23 01:38:34;;;;;;;8.37;6.53;;;;;;;7.48;87.24;100598.50;5066481;28;20466;-70
2022/09/23 01:41:07;;;;;;;9.60;6.37;;;;;;;7.42;87.53;100594.47;5061070;28;20475;-71
2022/09/23 01:43:40;;;;;;;8.53;7.10;;;;;;;7.41;87.69;100595.41;5075026;28;20444;-72
2022/09/23 01:46:13;;;;;;;8.67;6.30;;;;;;;7.43;87.55;100593.53;5079308;28;20481;-70
2022/09/23 01:48:43;;;;;;;7.00;6.07;;;;;;;7.44;87.58;100591.72;5081170;28;20499;-71
2022/09/23 01:51:12;;;;;;;8.80;7.10;;;;;;;7.44;87.53;100592.53;5079995;28;20498;-69
2022/09/23 01:53:43;;;;;;;7.00;6.30;;;;;;;7.48;87.74;100590.50;5063771;28;20483;-66
2022/09/23 01:56:13;;;;;;;6.67;5.97;;;;;;;7.45;88.03;100588.94;5061175;28;20488;-68
2022/09/23 01:58:43;;;;;;;6.77;6.17;;;;;;;7.47;88.26;100584.34;5067063;28;20432;-67
2022/09/23 02:01:16;;;;;;;6.50;5.73;;;;;;;7.47;88.28;100587.00;5080550;28;20478;-68
2022/09/23 02:03:45;;;;;;;12.00;7.30;;;;;;;7.44;88.32;100584.56;5081629;28;20808;-68
2022/09/23 02:06:15;;;;;;;7.50;6.40;;;;;;;7.46;88.07;100581.78;5078656;28;20506;-67
2022/09/23 02:08:44;;;;;;;8.57;6.50;;;;;;;7.59;88.55;100579.94;5081117;28;20450;-69
2022/09/23 02:11:14;;;;;;;8.40;6.63;;;;;;;7.63;88.34;100585.88;5081251;28;20513;-68
2022/09/23 02:13:44;;;;;;;8.17;6.70;;;;;;;7.63;88.20;100580.56;5080782;28;20518;-69
2022/09/23 02:16:18;;;;;;;7.20;6.13;;;;;;;7.60;88.23;100578.13;5073390;28;20523;-69
2022/09/23 02:18:48;;;;;;;9.20;6.90;;;;;;;7.49;87.88;100578.91;5073393;28;20483;-69
2022/09/23 02:21:16;;;;;;;8.90;6.73;;;;;;;7.43;87.56;100577.56;5072834;28;20494;-67
2022/09/23 02:23:45;;;;;;;6.93;6.23;;;;;;;7.41;87.83;100579.47;5064880;28;21018;-67
2022/09/23 02:26:18;;;;;;;8.63;6.30;;;;;;;7.42;87.75;100578.50;5081112;28;20487;-69
2022/09/23 02:28:50;;;;;;;7.00;6.30;;;;;;;7.39;87.97;100572.56;5085612;28;21236;-69
2022/09/23 02:31:26;;;;;;;10.10;6.63;;;;;;;7.38;88.12;100578.84;5075965;28;20538;-69
2022/09/23 02:33:56;;;;;;;8.00;6.33;;;;;;;7.30;88.24;100577.59;5080557;28;20471;-69
2022/09/23 02:36:28;;;;;;;8.43;6.70;;;;;;;7.29;87.98;100569.72;5080339;28;20975;-71
2022/09/23 02:38:57;;;;;;;7.97;6.43;;;;;;;7.28;88.14;100571.53;5080863;28;20479;-71
2022/09/23 02:41:27;;;;;;;8.47;6.70;;;;;;;7.29;88.09;100570.59;5080360;28;20482;-71
2022/09/23 02:43:58;;;;;;;7.60;6.67;;;;;;;7.29;88.28;100567.94;5080916;28;20503;-70
2022/09/23 02:46:27;;;;;;;9.40;7.10;;;;;;;7.31;88.45;100565.16;5074467;28;20481;-69
2022/09/23 02:48:57;;;;;;;9.90;6.57;;;;;;;7.34;88.13;100564.91;5061769;28;20494;-70
2022/09/23 02:51:24;;;;;;;8.57;6.80;;;;;;;7.33;88.18;100566.75;5079476;28;20477;-70
2022/09/23 02:53:51;;;;;;;7.80;7.00;;;;;;;7.42;88.41;100565.22;5078308;28;20482;-71
2022/09/23 02:56:19;;;;;;;8.17;7.03;;;;;;;7.40;88.30;100568.97;5073143;28;20478;-69
2022/09/23 02:58:47;;;;;;;12.37;6.97;;;;;;;7.41;88.57;100568.81;5080128;28;20554;-70
2022/09/23 03:01:18;;;;;;;9.30;7.93;;;;;;;7.47;88.60;100567.53;5066040;28;20518;-70
2022/09/23 03:03:49;;;;;;;9.37;7.10;;;;;;;7.48;88.15;100564.78;5060937;28;20528;-70
2022/09/23 03:06:24;;;;;;;9.20;7.43;;;;;;;7.47;88.28;100563.06;5060572;28;20487;-70
2022/09/23 03:08:55;;;;;;;8.90;8.10;;;;;;;7.53;88.18;100556.44;5061594;28;20528;-71
2022/09/23 03:11:23;;;;;;;8.40;7.60;;;;;;;7.56;87.92;100566.03;5058914;28;20481;-69
2022/09/23 03:14:08;;;;;;;8.40;7.50;;;;;;;7.56;88.41;100555.38;5076064;28;20583;-70
2022/09/23 03:16:41;;;;;;;7.43;6.67;;;;;;;7.60;88.17;100546.19;5068376;28;20921;-71
2022/09/23 03:19:20;;;;;;;8.03;6.93;;;;;;;7.56;88.38;100550.06;5062706;28;20499;-69
2022/09/23 03:21:51;;;;;;;8.37;7.17;;;;;;;7.65;88.17;100544.03;5079879;28;20475;-71
2022/09/23 03:24:19;;;;;;;9.67;6.70;;;;;;;7.64;88.07;100545.03;5079050;28;20530;-70
2022/09/23 03:26:47;;;;;;;9.83;6.43;;;;;;;7.64;87.98;100545.03;5078954;28;21000;-71
2022/09/23 03:29:14;;;;;;;7.53;6.73;;;;;;;7.63;88.12;100549.47;5072695;28;20512;-69
2022/09/23 03:31:41;;;;;;;8.27;6.77;;;;;;;7.59;87.86;100549.84;5059143;28;20505;-70
2022/09/23 03:34:13;;;;;;;9.57;6.90;;;;;;;7.60;88.06;100539.06;5073171;28;20485;-70
2022/09/23 03:36:52;;;;;;;10.63;6.83;;;;;;;7.61;87.91;100540.75;5077560;28;20475;-69
2022/09/23 03:39:27;;;;;;;6.57;5.97;;;;;;;7.64;87.98;100534.38;5077233;28;20622;-69
2022/09/23 03:41:57;;;;;;;7.50;6.10;;;;;;;7.69;87.79;100532.19;5084067;28;20888;-71
2022/09/23 03:44:24;;;;;;;7.20;6.50;;;;;;;7.61;87.84;100526.63;5083916;28;20523;-71
2022/09/23 03:46:50;;;;;;;7.50;6.80;;;;;;;7.61;87.91;100530.13;5079129;28;20580;-71
2022/09/23 03:49:26;;;;;;;8.57;7.30;;;;;;;7.55;88.19;100533.22;5078725;28;20444;-72
2022/09/23 03:51:52;;;;;;;7.93;6.90;;;;;;;7.60;87.87;100533.72;5078577;28;20478;-71
2022/09/23 03:54:19;;;;;;;9.63;6.70;;;;;;;7.58;87.54;100524.19;5078969;28;20486;-70
2022/09/23 03:56:47;;;;;;;8.33;6.67;;;;;;;7.55;87.66;100519.91;5068718;28;20492;-69
2022/09/23 03:59:14;;;;;;;6.90;6.20;;;;;;;7.52;87.87;100521.00;5072184;28;20496;-71
2022/09/23 04:01:41;;;;;;;7.40;6.07;;;;;;;7.56;87.62;100510.16;5075988;28;20481;-69
2022/09/23 04:04:08;;;;;;;7.57;6.73;;;;;;;7.55;87.75;100511.94;5079522;28;20815;-72
2022/09/23 04:06:36;;;;;;;7.27;6.50;;;;;;;7.45;87.70;100509.13;5078153;28;20484;-72
2022/09/23 04:09:03;;;;;;;8.20;6.50;;;;;;;7.47;88.00;100501.88;5078952;28;20475;-70
2022/09/23 04:11:29;;;;;;;8.63;6.63;;;;;;;7.47;87.96;100504.53;5082463;28;20503;-73
2022/09/23 04:13:56;;;;;;;8.10;6.20;;;;;;;7.40;87.97;100497.97;5090372;28;20872;-72
2022/09/23 04:16:23;;;;;;;6.30;5.70;;;;;;;7.37;88.03;100503.53;5078845;28;20470;-73
2022/09/23 04:18:50;;;;;;;7.70;6.60;;;;;;;7.39;88.02;100498.94;5078536;28;20493;-69
2022/09/23 04:21:16;;;;;;;9.73;6.27;;;;;;;7.37;88.21;100500.03;5078320;28;20482;-71
2022/09/23 04:23:45;;;;;;;7.20;6.50;;;;;;;7.42;87.95;100496.06;5078571;28;20475;-73
2022/09/23 04:26:12;;;;;;;6.57;5.97;;;;;;;7.35;88.13;100490.34;5074698;28;20511;-72
2022/09/23 04:28:38;;;;;;;6.97;6.27;;;;;;;7.35;87.80;100486.84;5079186;28;20451;-69
2022/09/23 04:31:06;;;;;;;6.63;6.03;;;;;;;7.27;88.17;100483.88;5078473;28;20483;-69
2022/09/23 04:33:33;;;;;;;7.40;6.00;;;;;;;7.27;88.21;100479.41;5081331;28;20978;-69
2022/09/23 04:36:00;;;;;;;6.23;5.63;;;;;;;7.21;88.45;100481.69;5077682;28;20553;-68
2022/09/23 04:38:27;;;;;;;7.07;6.37;;;;;;;7.29;88.26;100480.16;5074730;28;20562;-70
2022/09/23 04:40:55;;;;;;;7.57;6.30;;;;;;;7.27;88.32;100483.88;5076322;28;20497;-68
2022/09/23 04:43:23;;;;;;;10.00;5.23;;;;;;;7.23;88.32;100482.44;5077270;28;20459;-68
2022/09/23 04:45:57;;;;;;;6.67;5.97;;;;;;;7.31;88.23;100472.09;5065485;28;20559;-68
2022/09/23 04:48:24;;;;;;;6.83;6.07;;;;;;;7.30;88.27;100479.19;5048166;28;21038;-69
2022/09/23 04:50:51;;;;;;;8.10;6.63;;;;;;;7.33;88.06;100475.47;5037659;28;20511;-68
2022/09/23 04:53:18;;;;;;;6.93;6.33;;;;;;;7.25;87.80;100476.03;5037977;28;21053;-68
2022/09/23 04:55:44;;;;;;;6.10;5.50;;;;;;;7.26;87.62;100480.38;5054791;28;20474;-68
2022/09/23 04:58:12;;;;;;;6.27;5.63;;;;;;;7.15;87.61;100473.22;5064604;28;20499;-69
2022/09/23 05:00:39;;;;;;;5.93;5.43;;;;;;;7.13;87.87;100474.28;5057317;28;20529;-67
2022/09/23 05:03:07;;;;;;;7.13;5.47;;;;;;;7.10;87.84;100477.16;5057369;28;20453;-68
2022/09/23 05:05:33;;;;;;;6.80;5.70;;;;;;;7.09;87.59;100484.28;5064835;28;20602;-69
2022/09/23 05:08:00;;;;;;;6.30;5.30;;;;;;;7.08;87.60;100471.97;5078271;28;20512;-64
2022/09/23 05:10:26;;;;;;;7.30;6.60;;;;;;;7.11;88.01;100473.53;5070354;28;20464;-66
2022/09/23 05:12:53;;;;;;;6.37;5.73;;;;;;;7.13;87.89;100474.28;5067139;28;20460;-64
2022/09/23 05:15:21;;;;;;;6.30;5.60;;;;;;;7.10;87.66;100479.81;5076194;28;20482;-73
2022/09/23 05:17:48;;;;;;;6.20;5.60;;;;;;;7.08;88.01;100473.75;5080193;28;20426;-73
2022/09/23 05:20:14;;;;;;;6.30;5.70;;;;;;;7.08;87.78;100471.09;5065265;28;20560;-73
2022/09/23 05:22:41;;;;;;;6.77;6.07;;;;;;;7.09;87.67;100478.97;5074802;28;20464;-73
2022/09/23 05:25:09;;;;;;;7.60;5.77;;;;;;;7.09;87.65;100478.13;5066519;28;20476;-73
2022/09/23 05:27:35;;;;;;;6.40;5.80;;;;;;;7.16;88.24;100480.22;5061147;28;21050;-73
2022/09/23 05:30:02;;;;;;;6.40;5.80;;;;;;;7.30;88.00;100476.53;5061670;28;20470;-73
2022/09/23 05:32:32;;;;;;;6.13;5.63;;;;;;;7.35;87.56;100479.69;5060835;28;20480;-71
2022/09/23 05:34:59;;;;;;;6.20;5.70;;;;;;;7.33;87.81;100476.31;5061124;28;20536;-73
2022/09/23 05:37:26;;;;;;;8.57;6.33;;;;;;;7.32;87.49;100471.09;5060466;28;20490;-71
2022/09/23 05:39:53;;;;;;;7.30;6.07;;;;;;;7.32;87.21;100471.09;5060884;28;20484;-74
2022/09/23 05:42:20;;;;;;;7.37;5.60;;;;;;;7.29;86.96;100473.97;5060530;28;20471;-73
2022/09/23 05:44:46;;;;;;;6.70;6.10;;;;;;;7.31;86.89;100472.91;5067661;28;20489;-71
2022/09/23 05:47:13;;;;;;;8.47;6.57;;;;;;;7.30;86.50;100465.88;5089176;28;20475;-74
2022/09/23 05:49:41;;;;;;;7.43;6.37;;;;;;;7.35;86.25;100466.41;5093763;28;20443;-73
2022/09/23 05:52:08;;;;;;;7.13;6.53;;;;;;;7.45;86.43;100461.25;5079773;28;20482;-70
2022/09/23 05:54:34;;;;;;;7.27;5.83;;;;;;;7.52;86.15;100459.81;5080275;28;20595;-73
2022/09/23 05:57:02;;;;;;;6.47;5.87;;;;;;;7.66;85.78;100465.91;5079053;28;20494;-73
2022/09/23 05:59:28;;;;;;;10.43;6.20;;;;;;;7.80;85.53;100459.53;5080622;28;20434;-74
2022/09/23 06:01:55;;;;;;;7.33;5.80;;;;;;;7.79;85.25;100464.00;5079701;28;20476;-72
2022/09/23 06:04:22;;;;;;;6.30;5.70;;;;;;;7.89;84.90;100464.97;5080074;28;20772;-74
2022/09/23 06:06:50;;;;;;;9.20;5.90;;;;;;;8.03;84.30;100458.59;5079951;28;20518;-71
2022/09/23 06:09:17;;;;;;;8.07;6.20;;;;;;;8.19;84.32;100460.06;5081044;28;20459;-72
2022/09/23 06:11:43;;;;;;;8.83;6.10;;;;;;;8.40;83.51;100455.72;5079484;28;20608;-73
2022/09/23 06:14:11;;;;;;;5.53;4.90;;;;;;;8.45;82.19;100447.38;5080857;28;20507;-73
2022/09/23 06:16:38;;;;;;;7.50;5.97;;;;;;;8.38;81.84;100443.47;5080529;28;20498;-74
2022/09/23 06:19:05;;;;;;;7.23;5.97;;;;;;;8.65;81.28;100449.31;5078873;28;20457;-71
2022/09/23 06:21:32;;;;;;;7.87;5.50;;;;;;;8.98;80.29;100454.72;5091657;28;20473;-73
2022/09/23 06:24:01;;;;;;;7.10;5.47;;;;;;;9.26;78.95;100444.44;5080401;28;20452;-73
2022/09/23 06:26:32;;;;;;;16.27;7.20;;;;;;;9.83;77.65;100442.34;5079374;28;20938;-74
2022/09/23 06:28:59;;;;;;;13.60;5.70;;;;;;;10.60;74.21;100457.91;5080922;28;20432;-70
2022/09/23 06:31:26;;;;;;;10.17;5.37;;;;;;;11.63;71.01;100459.31;5081804;28;20479;-73
2022/09/23 06:33:53;;;;;;;11.23;6.33;;;;;;;12.61;66.16;100456.38;5079432;28;22344;-73
2022/09/23 06:36:20;;;;;;;9.53;4.93;;;;;;;12.88;64.17;100465.41;5079887;28;20526;-73
2022/09/23 06:38:48;;;;;;;5.83;4.33;;;;;;;14.00;61.21;100459.56;5080169;28;20478;-72
2022/09/23 06:41:19;;;;;;;5.93;4.40;;;;;;;14.38;58.86;100461.97;5077813;28;20476;-72
2022/09/23 06:43:46;;;;;;;4.43;3.90;;;;;;;15.72;54.11;100469.25;5080215;28;20449;-71
2022/09/23 06:46:15;;;;;;;5.57;3.60;;;;;;;15.68;52.96;100468.75;5079442;28;20498;-71
2022/09/23 06:48:43;;;;;;;6.83;6.10;;;;;;;15.07;54.29;100468.16;5079682;28;20834;-68
2022/09/23 06:51:12;;;;;;;8.87;6.40;;;;;;;14.15;57.86;100470.59;5078837;28;20477;-70
2022/09/23 06:53:39;;;;;;;8.07;4.27;;;;;;;14.53;57.35;100470.28;5079533;28;20487;-74
2022/09/23 06:56:07;;;;;;;7.77;4.50;;;;;;;15.32;54.46;100466.34;5078144;28;20471;-74
2022/09/23 06:58:36;;;;;;;3.50;3.20;;;;;;;15.51;54.28;100472.44;5079835;28;20425;-73
2022/09/23 07:01:05;;;;;;;4.97;3.60;;;;;;;15.35;54.00;100466.03;5078780;28;20478;-74
2022/09/23 07:03:33;;;;;;;4.30;3.10;;;;;;;15.09;54.14;100466.16;5078761;28;20945;-73
2022/09/23 07:06:00;;;;;;;4.00;3.60;;;;;;;14.72;56.15;100467.38;5078959;28;20478;-75
2022/09/23 07:08:28;;;;;;;6.03;3.20;;;;;;;14.32;57.15;100453.53;5079015;28;20449;-69
2022/09/23 07:10:56;;;;;;;3.27;2.97;;;;;;;14.87;55.38;100459.50;5077691;28;20577;-75
2022/09/23 07:13:23;;;;;;;6.87;3.33;;;;;;;14.22;57.66;100460.88;5079231;28;20509;-71
2022/09/23 07:15:51;;;;;;;4.43;3.60;;;;;;;14.80;57.33;100458.50;5078207;28;20565;-71
2022/09/23 07:18:18;;;;;;;5.03;3.90;;;;;;;14.80;56.92;100456.63;5077506;28;20450;-74
2022/09/23 07:20:45;;;;;;;4.10;3.50;;;;;;;15.12;56.09;100460.44;5078846;28;20508;-74
2022/09/23 07:23:12;;;;;;;4.80;3.80;;;;;;;14.57;58.34;100463.59;5078585;28;20458;-74
2022/09/23 07:25:38;;;;;;;4.27;3.50;;;;;;;14.96;56.87;100457.69;5077259;28;20505;-69
2022/09/23 07:28:05;;;;;;;4.10;3.60;;;;;;;15.51;55.35;100461.66;5078958;28;20512;-72
2022/09/23 07:30:35;;;;;;;5.70;3.73;;;;;;;16.16;52.97;100458.94;5078574;28;20471;-73
2022/09/23 07:33:03;;;;;;;4.10;3.50;;;;;;;17.21;50.98;100465.94;5085197;28;20494;-73
2022/09/23 07:35:30;;;;;;;3.97;3.40;;;;;;;17.68;49.00;100459.50;5077893;28;20547;-73
2022/09/23 07:37:56;;;;;;;6.17;3.60;;;;;;;17.81;49.37;100475.13;5078146;28;20860;-74
2022/09/23 07:40:23;;;;;;;5.60;3.50;;;;;;;18.03;48.24;100464.47;5076707;28;20458;-75
2022/09/23 07:42:50;;;;;;;7.23;3.00;;;;;;;19.69;43.50;100456.72;5078263;28;20469;-71
2022/09/23 07:45:17;;;;;;;6.20;3.33;;;;;;;19.64;43.33;100461.91;5078011;28;20483;-75
2022/09/23 07:47:44;;;;;;;5.10;3.20;;;;;;;20.07;42.40;100453.72;5071565;28;20449;-75
2022/09/23 07:50:12;;;;;;;4.47;3.33;;;;;;;20.53;41.15;100455.03;5067080;28;20678;-72
2022/09/23 07:52:39;;;;;;;4.30;3.50;;;;;;;19.78;43.13;100458.28;5078732;28;20921;-75
2022/09/23 07:55:07;;;;;;;4.60;3.33;;;;;;;18.61;45.66;100456.56;5077047;28;20544;-75
2022/09/23 07:57:33;;;;;;;3.73;3.40;;;;;;;18.79;44.98;100458.88;5077580;28;20455;-74
2022/09/23 08:00:01;;;;;;;3.73;3.17;;;;;;;20.82;41.12;100454.78;5078511;28;20493;-72
2022/09/23 08:02:28;;;;;;;7.13;3.00;;;;;;;20.25;42.12;100447.78;5076601;28;20557;-75
2022/09/23 08:04:54;;;;;;;4.63;3.00;;;;;;;19.64;43.37;100451.88;5078151;28;20496;-71
2022/09/23 08:07:22;;;;;;;5.17;2.93;;;;;;;19.76;42.90;100446.81;5077880;28;21309;-75
2022/09/23 08:09:49;;;;;;;3.83;3.13;;;;;;;20.72;41.75;100443.44;5076962;28;20469;-74
2022/09/23 08:12:17;;;;;;;3.90;3.50;;;;;;;20.88;40.54;100443.13;5077450;28;20533;-75
2022/09/23 08:14:44;;;;;;;4.43;2.90;;;;;;;21.50;40.50;100444.94;5078721;28;20479;-76
2022/09/23 08:17:12;;;;;;;3.80;3.37;;;;;;;21.58;39.00;100444.75;5075612;28;20502;-75
2022/09/23 08:19:38;;;;;;;6.70;3.40;;;;;;;21.76;39.17;100444.13;5078168;28;20440;-75
2022/09/23 08:22:05;;;;;;;3.37;3.07;;;;;;;21.95;38.94;100442.44;5077221;28;21035;-74
2022/09/23 08:24:33;;;;;;;4.37;2.73;;;;;;;22.28;37.74;100449.75;5077140;28;20509;-74
2022/09/23 08:27:00;;;;;;;6.10;2.73;;;;;;;22.24;38.42;100443.00;5077526;28;20896;-75
2022/09/23 08:29:26;;;;;;;3.87;2.83;;;;;;;23.19;35.62;100442.47;5064339;28;20917;-72
2022/09/23 08:31:53;;;;;;;5.37;2.90;;;;;;;22.17;37.75;100441.16;5058284;28;20480;-72
2022/09/23 08:34:22;;;;;;;6.30;3.30;;;;;;;24.21;34.42;100448.59;5078473;28;20436;-75
2022/09/23 08:36:51;;;;;;;3.40;3.10;;;;;;;22.54;37.63;100444.22;5077491;28;20473;-72
2022/09/23 08:39:19;;;;;;;4.23;3.10;;;;;;;20.41;42.23;100442.00;5074096;28;20454;-75
2022/09/23 08:42:01;;;;;;;3.80;2.67;;;;;;;21.27;41.34;100435.25;5057236;28;20483;-75
2022/09/23 08:44:31;;;;;;;5.13;3.37;;;;;;;21.82;39.60;100443.28;5062932;28;20506;-70
2022/09/23 08:47:09;;;;;;;4.60;3.20;;;;;;;22.60;37.71;100441.69;5080795;28;20473;-75
2022/09/23 08:49:39;;;;;;;4.80;2.97;;;;;;;22.78;37.86;100441.00;5081788;28;20466;-75
2022/09/23 08:52:10;;;;;;;3.27;2.80;;;;;;;23.76;35.83;100437.03;5081405;28;20678;-75
2022/09/23 08:54:37;;;;;;;3.50;2.50;;;;;;;25.70;31.44;100428.16;5080418;28;20478;-76
2022/09/23 08:57:05;;;;;;;4.23;3.10;;;;;;;25.29;32.15;100429.88;5081426;28;20532;-75
2022/09/23 08:59:38;;;;;;;4.40;2.83;;;;;;;24.70;33.78;100440.50;5081869;28;20496;-72
2022/09/23 09:02:09;;;;;;;4.53;3.00;;;;;;;24.07;33.06;100438.88;5079472;28;20475;-68
2022/09/23 09:04:41;;;;;;;4.70;2.37;;;;;;;24.30;32.49;100432.75;5081575;28;20435;-71
2022/09/23 09:07:13;;;;;;;4.20;2.90;;;;;;;23.94;33.35;100439.00;5080486;28;20574;-68
2022/09/23 09:09:44;;;;;;;3.97;3.17;;;;;;;24.69;32.51;100438.03;5091767;28;20473;-75
2022/09/23 09:12:16;;;;;;;4.23;2.80;;;;;;;23.10;34.89;100425.53;5100597;28;20494;-71
2022/09/23 09:14:50;;;;;;;3.80;2.63;;;;;;;24.65;32.85;100424.00;5100963;28;20477;-75
2022/09/23 09:17:23;;;;;;;3.23;2.53;;;;;;;23.74;33.64;100430.97;5100629;28;20626;-75
2022/09/23 09:19:54;;;;;;;3.00;2.63;;;;;;;24.20;32.84;100424.25;5089602;28;20475;-72
2022/09/23 09:22:24;;;;;;;3.90;2.60;;;;;;;25.10;32.19;100420.00;5078115;28;20482;-75
2022/09/23 09:24:53;;;;;;;6.67;3.40;;;;;;;22.69;36.39;100426.75;5082591;28;20843;-76
2022/09/23 09:27:23;;;;;;;3.70;2.63;;;;;;;23.67;34.41;100423.66;5080656;28;20470;-75
2022/09/23 09:29:53;;;;;;;5.03;2.37;;;;;;;23.28;36.46;100420.19;5080486;28;20435;-75
2022/09/23 09:32:25;;;;;;;2.93;2.33;;;;;;;24.21;34.13;100409.53;5079889;28;20475;-75
2022/09/23 09:34:56;;;;;;;4.53;2.60;;;;;;;25.30;33.04;100409.63;5081091;28;20883;-75
2022/09/23 09:37:27;;;;;;;3.30;2.50;;;;;;;25.69;31.32;100411.94;5078910;28;20483;-75
2022/09/23 09:39:54;;;;;;;3.77;2.10;;;;;;;25.19;32.38;100411.25;5080475;28;20467;-72
2022/09/23 09:42:26;;;;;;;1.90;1.60;;;;;;;25.65;29.41;100406.13;5079517;28;20479;-75
2022/09/23 09:44:57;;;;;;;3.23;2.07;;;;;;;25.56;27.51;100394.69;5080565;28;20781;-72
2022/09/23 09:47:32;;;;;;;4.30;2.60;;;;;;;25.85;27.20;100405.78;5080353;28;20822;-75
2022/09/23 09:50:05;;;;;;;4.80;2.40;;;;;;;23.76;30.42;100398.81;5081623;28;20450;-75
2022/09/23 09:52:32;;;;;;;4.30;2.57;;;;;;;23.12;31.23;100404.34;5078939;28;20474;-74
2022/09/23 09:55:24;;;;;;;2.77;2.00;;;;;;;23.43;31.43;100402.66;5079642;28;20487;-75
2022/09/23 09:57:55;;;;;;;5.27;2.93;;;;;;;23.03;33.07;100398.28;5080806;28;20450;-75
2022/09/23 10:00:42;;;;;;;4.03;2.33;;;;;;;23.57;31.43;100389.75;5079196;28;20435;-71
2022/09/23 10:03:25;;;;;;;3.87;2.53;;;;;;;22.90;32.56;100392.94;5080374;28;20506;-72
2022/09/23 10:05:53;;;;;;;6.93;2.50;;;;;;;22.51;33.36;100392.88;5080136;28;20479;-74
2022/09/23 10:08:26;;;;;;;3.00;2.00;;;;;;;22.44;34.48;100385.78;5083843;28;20444;-75
2022/09/23 10:10:54;;;;;;;2.50;2.30;;;;;;;23.13;31.77;100385.03;5100061;28;21007;-72
2022/09/23 10:13:25;;;;;;;6.00;2.73;;;;;;;22.42;33.48;100375.09;5100518;28;20542;-75
2022/09/23 10:15:53;;;;;;;5.57;2.80;;;;;;;22.12;33.98;100386.50;5099576;28;20482;-71
2022/09/23 10:18:25;;;;;;;3.00;2.53;;;;;;;22.04;34.02;100375.00;5100256;28;20440;-73
2022/09/23 10:20:52;;;;;;;4.00;2.23;;;;;;;21.81;34.87;100382.56;5100111;28;20484;-72
2022/09/23 10:23:22;;;;;;;5.03;2.20;;;;;;;21.92;35.67;100372.09;5098979;28;20466;-72
2022/09/23 10:25:56;;;;;;;4.23;3.37;;;;;;;21.98;35.63;100380.25;5100055;28;20539;-73
2022/09/23 10:28:41;;;;;;;3.77;2.67;;;;;;;21.85;34.98;100371.25;5100660;28;20438;-71
2022/09/23 10:31:10;;;;;;;3.83;2.27;;;;;;;21.85;35.45;100379.44;5086955;28;20481;-74
2022/09/23 10:33:41;;;;;;;3.47;2.40;;;;;;;22.19;34.68;100372.88;5079446;28;20505;-73
2022/09/23 10:36:11;;;;;;;2.60;2.30;;;;;;;22.40;34.72;100376.41;5078864;28;20537;-71
2022/09/23 10:38:37;;;;;;;5.57;2.67;;;;;;;21.79;35.75;100368.34;5078995;28;20428;-73
2022/09/23 10:46:48;;;;;;;3.27;2.27;;;;;;;20.98;36.45;100369.31;5058849;28;20491;-73
2022/09/23 10:49:50;;;;;;;5.50;2.63;;;;;;;21.11;36.32;100368.53;5058918;28;20535;-74
2022/09/23 10:52:37;;;;;;;5.47;3.03;;;;;;;20.98;37.43;100361.16;5057305;28;20514;-72
2022/09/23 10:55:13;;;;;;;3.23;2.60;;;;;;;21.22;38.00;100365.19;5059228;28;20472;-71
2022/09/23 10:58:03;;;;;;;5.70;2.30;;;;;;;21.16;37.24;100362.44;5059712;28;20480;-70
2022/09/23 11:00:39;;;;;;;3.10;2.80;;;;;;;20.59;38.20;100357.28;5058281;28;20478;-73
2022/09/23 11:03:23;;;;;;;3.20;2.90;;;;;;;20.96;38.41;100352.38;5059672;28;20889;-74
2022/09/23 11:05:59;;;;;;;5.40;2.90;;;;;;;20.67;37.47;100356.28;5058494;28;20476;-73
2022/09/23 11:08:36;;;;;;;4.10;2.40;;;;;;;21.24;38.26;100360.38;5058641;28;21027;-71
2022/09/23 11:11:12;;;;;;;5.50;2.30;;;;;;;21.44;37.26;100356.84;5059068;28;20478;-74
2022/09/23 11:13:55;;;;;;;3.70;2.57;;;;;;;21.42;36.46;100362.47;5058713;28;20535;-71
2022/09/23 11:16:30;;;;;;;2.93;2.03;;;;;;;21.33;35.32;100352.84;5058940;28;20472;-70
2022/09/23 11:19:11;;;;;;;6.90;2.07;;;;;;;21.59;36.64;100345.75;5058499;28;21126;-72
2022/09/23 11:21:45;;;;;;;4.23;2.70;;;;;;;21.15;37.28;100341.75;5057241;28;20472;-71
2022/09/23 11:24:28;;;;;;;3.43;2.53;;;;;;;21.30;36.23;100349.69;5058798;28;20484;-73
2022/09/23 11:27:04;;;;;;;3.50;2.57;;;;;;;21.18;36.47;100339.47;5059053;28;21291;-70
2022/09/23 11:29:41;;;;;;;3.20;2.50;;;;;;;20.92;37.82;100344.84;5058403;28;20439;-72
2022/09/23 11:32:26;;;;;;;5.40;2.60;;;;;;;20.78;39.25;100338.53;5058447;28;20510;-73
2022/09/23 11:35:10;;;;;;;3.37;2.63;;;;;;;20.83;36.43;100334.19;5059373;28;20922;-73
2022/09/23 11:37:41;;;;;;;4.70;3.17;;;;;;;20.72;37.82;100326.63;5058490;28;20484;-74
2022/09/23 11:40:15;;;;;;;3.40;3.00;;;;;;;20.08;39.13;100317.78;5058916;28;20943;-74
2022/09/23 11:42:49;;;;;;;4.30;2.90;;;;;;;20.84;36.98;100316.00;5058074;28;20542;-73
2022/09/23 11:45:19;;;;;;;4.60;2.70;;;;;;;20.75;37.95;100315.34;5079654;28;20508;-70
2022/09/23 11:47:51;;;;;;;2.43;2.23;;;;;;;20.27;40.30;100316.22;5093312;28;20439;-73